Hauptseite
METAR-TAF:

METAR-TAF

Flughäfen :

Flughafen Heringsdorf

Heringsdorf, Deutschland

Breite: 53-53N, Länge: 014-09E, Höhe: 28 m

METAR: fehlend

Zeit: 00:27 (23:27 UTC)

Prognose

Neuester Wetterbericht von vor 33 Stunden und 27 Minuten, um 14:00 UTC
Gültige Prognose vom 11 um 15 UTC bis 11 um 24 UTC
Wind 12 kt aus Südost
Sichtweite 10 km oder mehr
Aufgelockert bewölkt in der Höhe von 1500 ft
Wahrscheinlichkeit 30% :
Zeitweise
vom 11 um 18 UTC bis 11 um 21 UTC
Sichtweite: 2000 m
Durchbrochene Bewölkung in der Höhe von 400 ft
feuchter Dunst

TAF: EDAH 111400Z 1115/1124 14012KT 9999 SCT015 PROB30 TEMPO 1118/1121 2000 BR BKN004

Wetterbeobachtungen und Prognosen von mehr als 4000 Flughäfen (METAR und TAF Bericht).

Die verfügbaren Stationen werden durch gelbe und rote Markierungen auf der Karte dargestellt.

Führen Sie die Maus auf sie, um den Namen der Station zu sehen.

Darauf klicken, um die Beobachtung von Wetterbeobachtungen und Prognosen zu sehen.

Um die Karte zu ändern : klicken Sie auf den grünen Tasten mit einem schwarzen Kreuz Zum Vergrößern, auf den grünen Button mit einem Gedankenstrich zu verkleinern, oder auf die grünen Pfeile für benachbarte Karten.


METAR-TAF: